Time;durP1;ratioP1;P1;durP2;ratioP2;P2;SDS_P1;SDS_P2;PMS_P1;PMS_P2;Temp;Humidity;BMP_temperature;BMP_pressure;BME280_temperature;BME280_humidity;BME280_pressure;Samples;Min_cycle;Max_cycle;Signal;HPM_P1;HPM_P2
2022/04/13 00:00:17;;;;;;;8.02;5.18;;;14.20;90.10;;;;;;5062193;28;38375;-54
2022/04/13 00:02:45;;;;;;;11.93;5.90;;;14.20;90.40;;;;;;5064604;28;36521;-54
2022/04/13 00:05:12;;;;;;;12.77;5.57;;;14.10;90.40;;;;;;5064723;28;37709;-53
2022/04/13 00:07:40;;;;;;;10.93;5.18;;;14.10;90.40;;;;;;5064034;28;36785;-53
2022/04/13 00:10:09;;;;;;;11.52;6.07;;;14.00;90.40;;;;;;5063861;28;37845;-54
2022/04/13 00:12:38;;;;;;;10.80;5.55;;;14.00;90.50;;;;;;5064656;28;36663;-53
2022/04/13 00:15:08;;;;;;;9.18;5.22;;;13.90;90.60;;;;;;5063437;28;36405;-54
2022/04/13 00:17:38;;;;;;;9.77;5.45;;;13.90;90.90;;;;;;5064186;28;38232;-55
2022/04/13 00:20:10;;;;;;;8.57;5.25;;;13.80;91.30;;;;;;5065093;28;39501;-54
2022/04/13 00:22:38;;;;;;;7.53;5.07;;;13.80;91.40;;;;;;5063983;28;38419;-54
2022/04/13 00:25:06;;;;;;;7.30;4.40;;;13.70;91.70;;;;;;5064280;28;37714;-54
2022/04/13 00:27:33;;;;;;;9.02;5.20;;;13.70;92.10;;;;;;5064224;28;38038;-54
2022/04/13 00:30:03;;;;;;;8.88;5.05;;;13.60;92.30;;;;;;5064416;28;38238;-54
2022/04/13 00:32:32;;;;;;;8.80;5.28;;;13.60;92.60;;;;;;5064061;28;35977;-54
2022/04/13 00:35:03;;;;;;;11.30;5.15;;;13.50;92.70;;;;;;5063700;28;37440;-55
2022/04/13 00:37:31;;;;;;;8.27;5.35;;;13.50;92.90;;;;;;5063827;28;40538;-54
2022/04/13 00:39:58;;;;;;;9.45;6.18;;;13.50;93.20;;;;;;5063272;28;38721;-58
2022/04/13 00:42:27;;;;;;;10.45;5.47;;;13.50;93.10;;;;;;5063817;28;36958;-59
2022/04/13 00:44:55;;;;;;;9.98;6.53;;;13.40;93.20;;;;;;5062273;28;38581;-59
2022/04/13 00:47:24;;;;;;;13.60;6.45;;;13.40;93.10;;;;;;5063641;28;39961;-60
2022/04/13 00:49:53;;;;;;;10.32;6.03;;;13.40;93.00;;;;;;5063193;28;37691;-59
2022/04/13 00:52:24;;;;;;;13.25;6.72;;;13.40;92.90;;;;;;5062800;28;34970;-59
2022/04/13 00:54:56;;;;;;;11.88;6.40;;;13.40;93.00;;;;;;5062810;28;37477;-59
2022/04/13 00:57:25;;;;;;;11.43;6.55;;;13.50;93.10;;;;;;5063909;28;38705;-59
2022/04/13 00:59:53;;;;;;;10.18;6.35;;;13.50;92.90;;;;;;5064317;28;38858;-59
2022/04/13 01:02:24;;;;;;;14.68;5.57;;;13.50;92.80;;;;;;5062471;28;36703;-59
2022/04/13 01:04:52;;;;;;;8.88;5.63;;;13.50;93.00;;;;;;5062172;28;37711;-59
2022/04/13 01:07:19;;;;;;;13.00;6.43;;;13.50;93.00;;;;;;5063008;28;37193;-59
2022/04/13 01:09:50;;;;;;;11.23;6.60;;;13.50;92.80;;;;;;5061028;28;37279;-58
2022/04/13 01:12:17;;;;;;;9.55;6.28;;;13.50;92.80;;;;;;5060688;28;36549;-59
2022/04/13 01:14:45;;;;;;;13.25;6.55;;;13.50;92.80;;;;;;5062381;28;36242;-59
2022/04/13 01:17:12;;;;;;;11.68;6.55;;;13.50;93.00;;;;;;5061926;28;39321;-60
2022/04/13 01:19:41;;;;;;;10.43;6.07;;;13.50;93.10;;;;;;5062332;28;38168;-59
2022/04/13 01:22:19;;;;;;;8.93;5.90;;;13.50;93.20;;;;;;5062966;28;37030;-60
2022/04/13 01:24:50;;;;;;;11.35;6.45;;;13.50;93.50;;;;;;5059894;28;37557;-59
2022/04/13 01:27:18;;;;;;;10.85;5.68;;;13.50;93.80;;;;;;5062891;28;38186;-59
2022/04/13 01:29:48;;;;;;;11.23;6.25;;;13.50;93.90;;;;;;5063069;28;38757;-59
2022/04/13 01:32:16;;;;;;;10.93;6.70;;;13.50;94.00;;;;;;5062330;28;35440;-59
2022/04/13 01:34:50;;;;;;;9.50;6.35;;;13.40;94.00;;;;;;5061100;28;39717;-59
2022/04/13 01:37:20;;;;;;;16.35;6.78;;;13.40;94.20;;;;;;5062562;28;38320;-59
2022/04/13 01:39:47;;;;;;;12.43;7.68;;;13.40;94.20;;;;;;5061110;28;39118;-59
2022/04/13 01:42:15;;;;;;;11.20;6.60;;;13.40;94.40;;;;;;5061332;28;37661;-59
2022/04/13 01:44:42;;;;;;;13.00;5.85;;;13.40;94.50;;;;;;5062458;28;37951;-59
2022/04/13 01:47:10;;;;;;;11.65;7.30;;;13.30;94.60;;;;;;5062749;28;37517;-59
2022/04/13 01:49:39;;;;;;;11.27;7.60;;;13.30;94.70;;;;;;5062247;28;38155;-59
2022/04/13 01:52:08;;;;;;;10.52;6.85;;;13.30;94.80;;;;;;5061678;28;37504;-59
2022/04/13 01:54:37;;;;;;;11.82;7.85;;;13.30;95.00;;;;;;5059454;28;37975;-59
2022/04/13 01:57:05;;;;;;;12.02;7.20;;;13.20;95.10;;;;;;5062573;28;36968;-59
2022/04/13 01:59:33;;;;;;;12.27;7.57;;;13.20;95.20;;;;;;5060706;28;37513;-59
2022/04/13 02:02:02;;;;;;;11.80;7.60;;;13.20;95.30;;;;;;5061239;28;36529;-59
2022/04/13 02:04:32;;;;;;;13.80;7.57;;;13.20;95.30;;;;;;5060929;28;38796;-59
2022/04/13 02:07:02;;;;;;;14.48;7.70;;;13.20;95.40;;;;;;5061893;28;38391;-58
2022/04/13 02:09:30;;;;;;;11.90;7.57;;;13.20;95.40;;;;;;5060762;28;36615;-59
2022/04/13 02:11:59;;;;;;;15.75;9.05;;;13.20;95.70;;;;;;5060911;28;38020;-62
2022/04/13 02:14:26;;;;;;;16.73;7.82;;;13.10;95.50;;;;;;5061158;28;40226;-59
2022/04/13 02:16:54;;;;;;;14.55;8.65;;;13.10;95.60;;;;;;5060822;28;38272;-59
2022/04/13 02:19:21;;;;;;;13.50;8.52;;;13.20;95.80;;;;;;5061118;28;36956;-59
2022/04/13 02:21:49;;;;;;;16.15;8.57;;;13.20;95.90;;;;;;5061323;28;38326;-58
2022/04/13 02:24:16;;;;;;;14.13;8.55;;;13.20;95.90;;;;;;5062229;28;38522;-59
2022/04/13 02:26:44;;;;;;;18.48;8.63;;;13.20;96.00;;;;;;5063409;28;37032;-59
2022/04/13 02:29:12;;;;;;;14.73;9.25;;;13.10;96.00;;;;;;5062928;28;39858;-59
2022/04/13 02:31:40;;;;;;;14.63;8.55;;;13.10;96.10;;;;;;5062123;28;38845;-59
2022/04/13 02:34:09;;;;;;;16.42;9.05;;;13.10;96.20;;;;;;5060781;28;38977;-59
2022/04/13 02:36:37;;;;;;;15.93;9.02;;;13.10;96.30;;;;;;5062726;28;38825;-60
2022/04/13 02:39:04;;;;;;;12.88;8.80;;;13.10;96.30;;;;;;5061390;28;37967;-59
2022/04/13 02:41:32;;;;;;;13.38;8.18;;;13.10;96.40;;;;;;5062332;28;38044;-59
2022/04/13 02:43:59;;;;;;;13.63;8.60;;;13.10;96.50;;;;;;5062508;28;36992;-59
2022/04/13 02:46:31;;;;;;;15.35;9.35;;;13.00;96.50;;;;;;5061381;28;38248;-59
2022/04/13 02:48:59;;;;;;;20.88;10.25;;;13.00;96.50;;;;;;5061921;28;39549;-58
2022/04/13 02:51:26;;;;;;;15.52;9.10;;;13.00;96.60;;;;;;5061601;28;36742;-59
2022/04/13 02:53:54;;;;;;;15.20;9.52;;;13.10;96.70;;;;;;5060510;28;36353;-59
2022/04/13 02:56:21;;;;;;;15.55;9.60;;;13.00;96.70;;;;;;5061155;28;38187;-59
2022/04/13 02:58:49;;;;;;;17.83;10.00;;;13.00;96.70;;;;;;5062058;28;39711;-59
2022/04/13 03:01:16;;;;;;;19.15;11.13;;;13.00;96.60;;;;;;5062664;28;36354;-59
2022/04/13 03:03:45;;;;;;;16.13;9.63;;;13.00;96.60;;;;;;5061931;28;37591;-53
2022/04/13 03:06:12;;;;;;;17.60;10.93;;;13.00;96.60;;;;;;5061523;28;37818;-53
2022/04/13 03:08:40;;;;;;;15.38;10.23;;;13.00;96.60;;;;;;5061341;28;36895;-54
2022/04/13 03:11:09;;;;;;;17.00;11.02;;;13.00;96.60;;;;;;5063785;28;35625;-53
2022/04/13 03:13:36;;;;;;;17.92;11.63;;;13.00;96.60;;;;;;5064479;28;38342;-54
2022/04/13 03:16:04;;;;;;;19.17;10.85;;;13.00;96.60;;;;;;5065433;28;37605;-59
2022/04/13 03:18:32;;;;;;;20.05;10.32;;;13.00;96.70;;;;;;5064106;28;36884;-59
2022/04/13 03:21:00;;;;;;;18.85;11.45;;;12.90;96.80;;;;;;5065740;28;38000;-59
2022/04/13 03:23:28;;;;;;;22.63;11.93;;;12.90;96.80;;;;;;5064986;28;38970;-58
2022/04/13 03:25:56;;;;;;;16.77;11.57;;;12.90;96.90;;;;;;5064953;28;36882;-59
2022/04/13 03:28:24;;;;;;;19.52;11.55;;;12.90;97.10;;;;;;5065416;28;36749;-52
2022/04/13 03:30:53;;;;;;;19.40;12.23;;;12.90;97.20;;;;;;5065431;28;38829;-54
2022/04/13 03:33:21;;;;;;;18.10;12.10;;;12.80;97.20;;;;;;5064671;28;37745;-53
2022/04/13 03:35:48;;;;;;;21.83;12.23;;;12.80;97.20;;;;;;5063791;28;38132;-53
2022/04/13 03:38:17;;;;;;;18.90;11.70;;;12.80;97.10;;;;;;5063043;28;38606;-54
2022/04/13 03:40:45;;;;;;;20.50;11.65;;;12.80;97.10;;;;;;5063552;28;38070;-54
2022/04/13 03:43:12;;;;;;;19.42;12.32;;;12.80;97.10;;;;;;5064906;28;37517;-54
2022/04/13 03:45:40;;;;;;;17.25;12.35;;;12.80;97.10;;;;;;5064603;28;36897;-59
2022/04/13 03:48:07;;;;;;;16.15;12.10;;;12.70;97.20;;;;;;5064684;28;37677;-59
2022/04/13 03:50:35;;;;;;;17.70;12.07;;;12.70;97.40;;;;;;5064847;28;37228;-58
2022/04/13 03:53:02;;;;;;;20.75;13.35;;;12.70;97.40;;;;;;5065406;28;37153;-59
2022/04/13 03:55:31;;;;;;;18.67;12.93;;;12.70;97.40;;;;;;5062879;28;38367;-59
2022/04/13 03:57:59;;;;;;;20.65;13.38;;;12.70;97.40;;;;;;5064960;28;38045;-59
2022/04/13 04:00:26;;;;;;;19.67;12.48;;;12.70;97.30;;;;;;5063530;28;36713;-59
2022/04/13 04:02:57;;;;;;;17.05;11.52;;;12.70;97.40;;;;;;5062696;28;36364;-59
2022/04/13 04:05:24;;;;;;;18.50;12.93;;;12.70;97.40;;;;;;5062607;28;38088;-59
2022/04/13 04:07:52;;;;;;;16.42;12.13;;;12.70;97.50;;;;;;5063267;28;39813;-58
2022/04/13 04:10:20;;;;;;;18.05;12.88;;;12.70;97.40;;;;;;5063937;28;38193;-60
2022/04/13 04:12:51;;;;;;;20.05;12.48;;;12.60;97.40;;;;;;5063060;28;37181;-54
2022/04/13 04:15:19;;;;;;;18.40;12.93;;;12.70;97.50;;;;;;5063218;28;39856;-54
2022/04/13 04:17:46;;;;;;;20.35;12.82;;;12.70;97.50;;;;;;5064102;28;37580;-54
2022/04/13 04:20:14;;;;;;;26.85;13.85;;;12.70;97.50;;;;;;5064350;28;35550;-53
2022/04/13 04:22:44;;;;;;;21.73;13.02;;;12.70;97.40;;;;;;5063373;28;37201;-53
2022/04/13 04:25:11;;;;;;;20.85;12.35;;;12.70;97.30;;;;;;5062357;28;38294;-54
2022/04/13 04:27:39;;;;;;;22.73;12.02;;;12.70;97.30;;;;;;5063745;28;36689;-53
2022/04/13 04:30:10;;;;;;;21.58;12.75;;;12.70;97.30;;;;;;5065030;28;37985;-54
2022/04/13 04:32:40;;;;;;;21.95;12.07;;;12.70;97.40;;;;;;5063563;28;37505;-52
2022/04/13 04:35:09;;;;;;;19.00;11.98;;;12.70;97.50;;;;;;5062902;28;37017;-54
2022/04/13 04:37:36;;;;;;;24.17;13.55;;;12.60;97.50;;;;;;5062957;28;37802;-54
2022/04/13 04:40:05;;;;;;;18.88;12.10;;;12.70;97.60;;;;;;5061777;28;36371;-54
2022/04/13 04:42:33;;;;;;;23.77;12.80;;;12.70;97.70;;;;;;5063057;28;36487;-54
2022/04/13 04:45:00;;;;;;;17.63;12.43;;;12.70;97.80;;;;;;5063507;28;38970;-54
2022/04/13 04:47:32;;;;;;;22.50;12.88;;;12.60;97.80;;;;;;5064376;28;39113;-54
2022/04/13 04:50:00;;;;;;;19.80;13.25;;;12.70;97.90;;;;;;5064077;28;36670;-53
2022/04/13 04:52:27;;;;;;;22.23;13.80;;;12.70;97.90;;;;;;5064018;28;39226;-53
2022/04/13 04:54:55;;;;;;;18.83;12.55;;;12.60;97.90;;;;;;5062324;28;39783;-53
2022/04/13 04:57:23;;;;;;;24.75;13.45;;;12.60;98.00;;;;;;5063895;28;37150;-54
2022/04/13 04:59:51;;;;;;;25.55;13.35;;;12.60;98.00;;;;;;5063840;28;37867;-53
2022/04/13 05:02:18;;;;;;;19.33;12.95;;;12.60;98.10;;;;;;5062437;28;36658;-53
2022/04/13 05:04:47;;;;;;;20.70;13.40;;;12.60;98.10;;;;;;5062730;28;38909;-53
2022/04/13 05:07:14;;;;;;;19.58;12.27;;;12.60;98.20;;;;;;5062921;28;38377;-54
2022/04/13 05:09:42;;;;;;;24.52;12.80;;;12.60;98.20;;;;;;5062504;28;38202;-54
2022/04/13 05:12:10;;;;;;;21.58;13.35;;;12.60;98.30;;;;;;5063100;28;37964;-59
2022/04/13 05:14:38;;;;;;;17.70;11.68;;;12.70;98.40;;;;;;5062086;28;37022;-59
2022/04/13 05:17:05;;;;;;;21.85;13.18;;;12.70;98.40;;;;;;5063232;28;37225;-59
2022/04/13 05:19:36;;;;;;;21.52;13.07;;;12.70;98.40;;;;;;5063612;28;37000;-59
2022/04/13 05:22:05;;;;;;;21.45;13.95;;;12.70;98.40;;;;;;5062116;28;37776;-59
2022/04/13 05:24:33;;;;;;;22.13;12.43;;;12.70;98.50;;;;;;5062516;28;38305;-59
2022/04/13 05:27:02;;;;;;;22.88;13.25;;;12.70;98.40;;;;;;5061863;28;36754;-59
2022/04/13 05:29:30;;;;;;;25.27;14.18;;;12.70;98.50;;;;;;5062220;28;37673;-59
2022/04/13 05:31:57;;;;;;;22.52;13.98;;;12.70;98.60;;;;;;5061056;28;36522;-59
2022/04/13 05:34:24;;;;;;;21.40;13.60;;;12.70;98.70;;;;;;5060602;28;38440;-59
2022/04/13 05:36:54;;;;;;;19.25;13.18;;;12.70;98.70;;;;;;5061626;28;38699;-59
2022/04/13 05:39:23;;;;;;;21.83;13.00;;;12.70;98.70;;;;;;5063044;28;36989;-54
2022/04/13 05:41:51;;;;;;;22.48;13.88;;;12.80;98.70;;;;;;5062944;28;38410;-54
2022/04/13 05:44:18;;;;;;;24.50;13.65;;;12.80;98.70;;;;;;5063231;28;38135;-59
2022/04/13 05:46:45;;;;;;;25.30;15.13;;;12.80;98.70;;;;;;5063104;28;38977;-59
2022/04/13 05:49:13;;;;;;;23.08;14.38;;;12.80;98.70;;;;;;5063189;28;35498;-59
2022/04/13 05:51:41;;;;;;;22.95;13.93;;;12.80;98.70;;;;;;5062606;28;37509;-59
2022/04/13 05:54:08;;;;;;;23.67;13.45;;;12.80;98.70;;;;;;5060518;28;38719;-59
2022/04/13 05:56:37;;;;;;;21.45;13.95;;;12.80;98.80;;;;;;5063267;28;36685;-59
2022/04/13 05:59:05;;;;;;;23.73;14.55;;;12.90;98.80;;;;;;5062231;28;37563;-58
2022/04/13 06:01:33;;;;;;;29.38;15.02;;;13.00;98.70;;;;;;5063504;28;36348;-59
2022/04/13 06:04:00;;;;;;;23.77;14.63;;;13.20;98.80;;;;;;5063627;28;39710;-60
2022/04/13 06:06:30;;;;;;;26.52;15.32;;;13.30;98.70;;;;;;5061789;28;39716;-60
2022/04/13 06:08:57;;;;;;;25.77;15.48;;;13.40;98.70;;;;;;5063085;28;36958;-59
2022/04/13 06:11:25;;;;;;;24.52;14.60;;;13.50;98.60;;;;;;5063365;28;39489;-59
2022/04/13 06:13:53;;;;;;;21.42;14.93;;;13.50;98.80;;;;;;5061433;28;38649;-59
2022/04/13 06:16:21;;;;;;;25.17;15.02;;;13.50;98.90;;;;;;5059626;28;38497;-59
2022/04/13 06:18:48;;;;;;;22.10;15.02;;;13.50;98.90;;;;;;5061939;28;39062;-59
2022/04/13 06:21:16;;;;;;;24.98;15.18;;;13.60;99.00;;;;;;5062759;28;38533;-54
2022/04/13 06:23:44;;;;;;;22.92;14.95;;;13.60;99.10;;;;;;5062807;28;36263;-54
2022/04/13 06:26:14;;;;;;;27.27;15.13;;;13.70;99.00;;;;;;5060038;28;36506;-54
2022/04/13 06:28:44;;;;;;;27.52;15.18;;;13.80;99.00;;;;;;5061459;28;36965;-54
2022/04/13 06:31:13;;;;;;;25.10;14.35;;;13.90;99.00;;;;;;5061234;28;37430;-54
2022/04/13 06:33:41;;;;;;;22.00;14.38;;;14.00;98.90;;;;;;5059581;28;38390;-59
2022/04/13 06:36:08;;;;;;;23.23;15.65;;;14.10;98.80;;;;;;5059159;28;36744;-59
2022/04/13 06:38:40;;;;;;;27.65;15.45;;;14.10;98.90;;;;;;5060447;28;36994;-59
2022/04/13 06:41:07;;;;;;;27.55;14.82;;;14.20;98.90;;;;;;5060484;28;37218;-59
2022/04/13 06:43:35;;;;;;;20.92;14.10;;;14.40;98.80;;;;;;5059340;28;38108;-58
2022/04/13 06:46:03;;;;;;;27.20;15.02;;;14.60;98.90;;;;;;5064022;28;39173;-59
2022/04/13 06:48:32;;;;;;;25.85;15.35;;;14.90;98.80;;;;;;5065872;28;36959;-59
2022/04/13 06:51:00;;;;;;;21.02;13.40;;;15.00;98.20;;;;;;5065104;28;38089;-59
2022/04/13 06:53:28;;;;;;;26.80;14.25;;;15.00;98.10;;;;;;5064820;28;38293;-59
2022/04/13 06:55:58;;;;;;;20.65;13.20;;;15.00;98.10;;;;;;5065274;28;38429;-59
2022/04/13 06:58:25;;;;;;;19.27;13.40;;;14.90;98.30;;;;;;5064514;28;35709;-54
2022/04/13 07:00:53;;;;;;;24.77;14.35;;;15.00;98.50;;;;;;5061075;28;37716;-54
2022/04/13 07:03:23;;;;;;;23.83;12.65;;;15.00;98.50;;;;;;5064038;28;40142;-54
2022/04/13 07:05:52;;;;;;;23.17;12.93;;;15.10;98.50;;;;;;5063100;28;39553;-54
2022/04/13 07:08:20;;;;;;;24.17;13.13;;;15.00;98.50;;;;;;5063802;28;37487;-54
2022/04/13 07:10:48;;;;;;;20.60;12.57;;;15.00;98.40;;;;;;5064601;28;39169;-59
2022/04/13 07:13:16;;;;;;;17.75;11.27;;;15.10;98.40;;;;;;5064794;28;38425;-59
2022/04/13 07:15:44;;;;;;;18.55;11.02;;;15.20;98.50;;;;;;5064033;28;37943;-59
2022/04/13 07:18:14;;;;;;;18.92;12.18;;;15.40;98.50;;;;;;5065305;28;37810;-59
2022/04/13 07:20:42;;;;;;;21.48;11.45;;;15.70;98.50;;;;;;5064850;28;37121;-60
2022/04/13 07:23:11;;;;;;;19.38;11.65;;;16.00;98.20;;;;;;5065610;28;40542;-60
2022/04/13 07:25:38;;;;;;;18.70;11.43;;;16.20;97.70;;;;;;5064385;28;39348;-59
2022/04/13 07:28:08;;;;;;;17.27;10.95;;;16.50;97.30;;;;;;5065379;28;36681;-59
2022/04/13 07:30:36;;;;;;;22.85;11.35;;;16.60;96.60;;;;;;5064346;28;38103;-54
2022/04/13 07:33:04;;;;;;;18.73;12.18;;;16.70;96.10;;;;;;5062209;28;37762;-54
2022/04/13 07:35:32;;;;;;;19.95;12.70;;;16.70;95.80;;;;;;5061907;28;37585;-58
2022/04/13 07:38:00;;;;;;;16.85;11.32;;;16.60;95.60;;;;;;5063406;28;36796;-60
2022/04/13 07:40:28;;;;;;;20.67;10.45;;;16.60;95.60;;;;;;5064471;28;38557;-59
2022/04/13 07:42:56;;;;;;;19.58;11.18;;;16.40;95.50;;;;;;5064028;28;38316;-59
2022/04/13 07:45:23;;;;;;;20.65;11.15;;;16.40;95.60;;;;;;5063672;28;36735;-60
2022/04/13 07:47:51;;;;;;;20.20;11.65;;;16.30;95.70;;;;;;5062798;28;37150;-59
2022/04/13 07:50:18;;;;;;;22.90;10.85;;;16.20;96.00;;;;;;5065063;28;38545;-59
2022/04/13 07:52:47;;;;;;;20.75;11.23;;;16.10;96.10;;;;;;5063879;28;36936;-59
2022/04/13 07:55:14;;;;;;;20.52;10.88;;;16.00;96.30;;;;;;5063616;28;36983;-60
2022/04/13 07:57:46;;;;;;;17.00;10.13;;;15.90;96.40;;;;;;5062980;28;36807;-60
2022/04/13 08:00:17;;;;;;;15.95;9.95;;;15.90;96.30;;;;;;5063354;28;38956;-59
2022/04/13 08:02:46;;;;;;;15.38;9.90;;;15.90;96.60;;;;;;5064680;28;38272;-59
2022/04/13 08:05:14;;;;;;;17.27;10.02;;;15.90;96.60;;;;;;5063138;28;39843;-59
2022/04/13 08:07:42;;;;;;;23.17;10.10;;;15.90;96.70;;;;;;5064849;28;37756;-59
2022/04/13 08:10:10;;;;;;;17.25;10.43;;;15.90;96.90;;;;;;5063767;28;39867;-59
2022/04/13 08:12:39;;;;;;;17.52;9.60;;;16.00;97.00;;;;;;5063825;28;38714;-59
2022/04/13 08:15:10;;;;;;;19.73;11.23;;;16.00;96.90;;;;;;5063471;28;38325;-59
2022/04/13 08:17:38;;;;;;;16.60;9.73;;;16.10;96.80;;;;;;5064078;28;37051;-59
2022/04/13 08:20:08;;;;;;;16.33;10.05;;;16.20;96.60;;;;;;5065343;28;37317;-60
2022/04/13 08:22:36;;;;;;;18.75;9.18;;;16.30;96.60;;;;;;5064412;28;39153;-59
2022/04/13 08:25:05;;;;;;;17.63;9.48;;;16.50;96.70;;;;;;5064717;28;37680;-59
2022/04/13 08:27:35;;;;;;;18.60;9.95;;;16.70;96.60;;;;;;5065134;28;36330;-59
2022/04/13 08:30:03;;;;;;;17.20;9.35;;;16.80;95.80;;;;;;5065581;28;38161;-54
2022/04/13 08:32:32;;;;;;;16.98;9.45;;;16.90;95.50;;;;;;5064794;28;38246;-54
2022/04/13 08:35:04;;;;;;;18.75;10.13;;;17.20;95.60;;;;;;5063876;28;37364;-54
2022/04/13 08:37:34;;;;;;;15.65;8.75;;;17.50;94.80;;;;;;5065071;28;36558;-54
2022/04/13 08:40:01;;;;;;;15.57;8.93;;;17.90;93.50;;;;;;5064172;28;36956;-54
2022/04/13 08:42:39;;;;;;;14.35;7.80;;;18.10;93.30;;;;;;5064933;28;39153;-54
2022/04/13 08:45:16;;;;;;;18.42;9.80;;;18.40;92.90;;;;;;5064652;28;37658;-54
2022/04/13 08:47:47;;;;;;;13.30;8.05;;;18.60;92.20;;;;;;5063936;28;37433;-54
2022/04/13 08:50:14;;;;;;;16.05;8.88;;;18.80;91.40;;;;;;5064627;28;36519;-54
2022/04/13 08:52:44;;;;;;;16.48;8.35;;;18.90;91.30;;;;;;5065062;28;39000;-54
2022/04/13 08:55:14;;;;;;;16.42;6.50;;;19.20;91.00;;;;;;5062300;28;35935;-54
2022/04/13 08:57:47;;;;;;;15.05;7.50;;;19.40;91.30;;;;;;5064689;28;36683;-54
2022/04/13 09:00:16;;;;;;;14.65;7.15;;;19.70;90.10;;;;;;5064642;28;37882;-54
2022/04/13 09:03:14;;;;;;;11.70;6.63;;;19.80;87.70;;;;;;5064545;28;37996;-54
2022/04/13 09:05:47;;;;;;;11.85;5.95;;;19.60;85.50;;;;;;5061088;28;36599;-53
2022/04/13 09:08:20;;;;;;;15.23;7.13;;;19.60;86.60;;;;;;5063813;28;37322;-54
2022/04/13 09:10:51;;;;;;;14.23;6.70;;;19.60;86.50;;;;;;5058843;28;36427;-54
2022/04/13 09:13:20;;;;;;;14.80;6.13;;;19.80;86.30;;;;;;5062814;28;38645;-54
2022/04/13 09:15:48;;;;;;;15.70;6.85;;;19.90;84.90;;;;;;5060338;28;38522;-54
2022/04/13 09:18:17;;;;;;;13.65;6.53;;;20.00;84.50;;;;;;5063652;28;35261;-54
2022/04/13 09:20:45;;;;;;;10.18;5.43;;;20.20;84.10;;;;;;5063336;28;38079;-54
2022/04/13 09:23:14;;;;;;;11.55;6.10;;;20.60;82.50;;;;;;5063180;28;38581;-53
2022/04/13 09:25:42;;;;;;;12.30;6.13;;;20.80;80.50;;;;;;5063640;28;38788;-54
2022/04/13 09:28:12;;;;;;;14.30;5.88;;;21.00;79.30;;;;;;5064030;28;38767;-54
2022/04/13 09:30:43;;;;;;;13.82;6.18;;;21.20;78.60;;;;;;5063687;28;37938;-54
2022/04/13 09:33:10;;;;;;;14.55;6.25;;;21.30;79.10;;;;;;5057562;28;36950;-54
2022/04/13 09:35:39;;;;;;;12.40;6.18;;;21.40;77.20;;;;;;5059870;28;37762;-55
2022/04/13 09:38:08;;;;;;;12.75;5.68;;;21.50;75.20;;;;;;5059361;28;37809;-55
2022/04/13 09:40:36;;;;;;;10.27;5.68;;;21.80;74.40;;;;;;5058737;28;38146;-54
2022/04/13 09:43:11;;;;;;;12.15;5.03;;;21.90;73.30;;;;;;5060780;28;38870;-55
2022/04/13 09:45:42;;;;;;;11.95;5.25;;;22.10;72.70;;;;;;5062145;28;39390;-55
2022/04/13 09:48:11;;;;;;;10.45;4.80;;;22.30;70.50;;;;;;5061296;28;36499;-54
2022/04/13 09:50:42;;;;;;;8.50;4.10;;;22.40;69.00;;;;;;5061273;28;37464;-54
2022/04/13 09:53:10;;;;;;;11.07;4.10;;;22.40;67.70;;;;;;5062098;28;37549;-54
2022/04/13 09:55:40;;;;;;;8.55;3.72;;;22.40;66.90;;;;;;5062047;28;37945;-54
2022/04/13 09:58:10;;;;;;;9.68;3.40;;;22.40;67.40;;;;;;5063465;28;35363;-55
2022/04/13 10:00:38;;;;;;;8.82;3.40;;;22.40;66.30;;;;;;5062887;28;37445;-54
2022/04/13 10:03:11;;;;;;;10.10;3.10;;;22.50;65.70;;;;;;5062208;28;39052;-54
2022/04/13 10:05:43;;;;;;;11.50;3.40;;;22.40;63.30;;;;;;5062315;28;37844;-54
2022/04/13 10:08:12;;;;;;;8.80;3.30;;;22.40;63.30;;;;;;5063399;28;35501;-53
2022/04/13 10:10:45;;;;;;;7.95;3.70;;;22.40;64.30;;;;;;5062124;28;39071;-55
2022/04/13 10:13:14;;;;;;;6.95;3.35;;;22.50;63.90;;;;;;5062737;28;39004;-55
2022/04/13 10:15:57;;;;;;;9.75;3.53;;;22.50;62.90;;;;;;5061335;28;36699;-55
2022/04/13 10:18:28;;;;;;;8.88;3.22;;;22.40;62.50;;;;;;5062288;28;38271;-55
2022/04/13 10:20:57;;;;;;;8.60;4.07;;;22.40;61.90;;;;;;5061224;28;38048;-54
2022/04/13 10:23:25;;;;;;;8.35;3.63;;;22.40;61.50;;;;;;5060963;28;38707;-54
2022/04/13 10:26:09;;;;;;;10.55;4.03;;;22.40;62.60;;;;;;5061943;28;37926;-54
2022/04/13 10:28:48;;;;;;;9.43;3.97;;;22.50;61.10;;;;;;5063184;28;36733;-59
2022/04/13 10:31:16;;;;;;;8.27;3.45;;;22.40;61.20;;;;;;5061822;28;37966;-59
2022/04/13 10:33:47;;;;;;;7.90;3.92;;;22.20;62.30;;;;;;5060709;28;36853;-60
2022/04/13 10:36:17;;;;;;;9.07;3.50;;;22.30;62.60;;;;;;5062024;28;39702;-60
2022/04/13 10:38:45;;;;;;;9.73;3.38;;;22.40;61.80;;;;;;5062459;28;36938;-60
2022/04/13 10:41:16;;;;;;;7.07;2.88;;;22.50;62.10;;;;;;5062218;28;38098;-60
2022/04/13 10:43:49;;;;;;;6.20;2.70;;;22.60;61.20;;;;;;5061035;28;36735;-54
2022/04/13 10:46:19;;;;;;;;;;;22.50;59.50;;;;;;5061974;28;37669;-55
2022/04/13 10:48:49;;;;;;;9.85;3.47;;;22.20;58.20;;;;;;5062343;28;36849;-54
2022/04/13 10:51:23;;;;;;;10.38;2.58;;;22.00;60.90;;;;;;5061665;28;38426;-54
2022/04/13 10:54:00;;;;;;;9.20;3.70;;;22.00;62.10;;;;;;5057211;28;39112;-54
2022/04/13 10:56:31;;;;;;;9.45;3.40;;;22.00;62.10;;;;;;5061027;28;36775;-55
2022/04/13 10:59:08;;;;;;;10.77;3.53;;;22.00;62.60;;;;;;5058811;28;36823;-55
2022/04/13 11:01:45;;;;;;;8.93;3.83;;;22.10;62.20;;;;;;5057904;28;37252;-60
2022/04/13 11:04:13;;;;;;;9.80;3.90;;;22.20;62.00;;;;;;5056801;28;38728;-54
2022/04/13 11:06:43;;;;;;;8.38;3.65;;;22.20;61.80;;;;;;5058034;28;37114;-60
2022/04/13 11:09:21;;;;;;;7.97;3.28;;;22.10;61.20;;;;;;5057941;28;40090;-60
2022/04/13 11:11:52;;;;;;;10.23;3.90;;;22.00;61.50;;;;;;5057774;28;36537;-60
2022/04/13 11:14:20;;;;;;;11.57;4.47;;;21.80;62.30;;;;;;5059774;28;37770;-60
2022/04/13 11:16:52;;;;;;;7.95;3.97;;;21.70;63.40;;;;;;5061457;28;37821;-60
2022/04/13 11:19:21;;;;;;;11.52;4.28;;;21.40;63.10;;;;;;5061035;28;38651;-55
2022/04/13 11:22:15;;;;;;;10.02;4.35;;;21.20;63.40;;;;;;5059937;28;36504;-55
2022/04/13 11:24:56;;;;;;;9.82;4.18;;;20.80;64.50;;;;;;5059984;28;39664;-60
2022/04/13 11:27:25;;;;;;;8.15;3.50;;;20.60;66.50;;;;;;5059343;28;39216;-60
2022/04/13 11:30:01;;;;;;;9.85;4.13;;;20.60;67.00;;;;;;5059003;28;37266;-60
2022/04/13 11:32:35;;;;;;;10.70;4.78;;;20.50;68.50;;;;;;5061726;28;38209;-55
2022/04/13 11:35:02;;;;;;;;;;;20.40;69.20;;;;;;5063251;28;39598;-55
2022/04/13 11:37:46;;;;;;;7.75;3.30;;;20.30;69.50;;;;;;5063469;28;38800;-55
2022/04/13 11:40:21;;;;;;;10.68;4.28;;;20.30;68.60;;;;;;5063455;28;36101;-55
2022/04/13 11:42:59;;;;;;;8.15;3.22;;;20.20;70.00;;;;;;5061935;28;38101;-55
2022/04/13 11:45:27;;;;;;;8.52;2.33;;;20.00;70.20;;;;;;5061435;28;38081;-55
2022/04/13 11:47:59;;;;;;;5.40;2.05;;;19.80;70.00;;;;;;5063002;28;38873;-54
2022/04/13 11:50:29;;;;;;;14.02;3.20;;;19.50;69.80;;;;;;5061430;28;36822;-55
2022/04/13 11:53:01;;;;;;;10.00;3.10;;;19.50;71.40;;;;;;5061878;28;36896;-54
2022/04/13 11:55:32;;;;;;;9.13;3.50;;;19.30;71.60;;;;;;5058239;28;37893;-54
2022/04/13 11:58:21;;;;;;;9.77;2.75;;;19.20;72.50;;;;;;5063778;28;36576;-54
2022/04/13 12:01:11;;;;;;;10.48;3.88;;;19.10;73.30;;;;;;5065025;28;38627;-55
2022/04/13 12:03:40;;;;;;;10.38;3.58;;;19.00;75.10;;;;;;5060601;28;36360;-54
2022/04/13 12:06:09;;;;;;;13.52;4.13;;;19.00;76.30;;;;;;5062712;28;38320;-54
2022/04/13 12:08:39;;;;;;;13.43;3.65;;;19.00;77.40;;;;;;5063094;28;37733;-54
2022/04/13 12:11:08;;;;;;;11.10;3.88;;;19.00;77.30;;;;;;5061372;28;36436;-55
2022/04/13 12:13:51;;;;;;;9.07;3.58;;;18.90;77.80;;;;;;5061720;28;37395;-54
2022/04/13 12:16:20;;;;;;;10.10;4.13;;;18.90;78.40;;;;;;5063877;28;38730;-55
2022/04/13 12:18:48;;;;;;;10.23;4.25;;;18.80;79.00;;;;;;5061482;28;36595;-55
2022/04/13 12:21:17;;;;;;;12.27;4.20;;;18.80;80.00;;;;;;5062566;28;37084;-55
2022/04/13 12:23:48;;;;;;;10.73;4.70;;;18.70;79.70;;;;;;5062584;28;36364;-55
2022/04/13 12:26:17;;;;;;;15.05;5.03;;;18.60;81.00;;;;;;5063104;28;36709;-54
2022/04/13 12:28:44;;;;;;;13.25;5.20;;;18.60;82.20;;;;;;5063557;28;38982;-54
2022/04/13 12:31:13;;;;;;;12.90;5.22;;;18.60;83.50;;;;;;5063143;28;36450;-54
2022/04/13 12:33:42;;;;;;;14.05;5.07;;;18.50;84.10;;;;;;5061889;28;40206;-54
2022/04/13 12:36:11;;;;;;;12.52;4.35;;;18.50;85.10;;;;;;5061820;28;38636;-54
2022/04/13 12:38:43;;;;;;;12.23;4.50;;;18.40;84.90;;;;;;5061487;28;36739;-54
2022/04/13 12:41:14;;;;;;;13.77;4.45;;;18.40;84.60;;;;;;5062378;28;35543;-55
2022/04/13 12:43:43;;;;;;;14.18;4.80;;;18.40;84.50;;;;;;5060846;28;37592;-55
2022/04/13 12:46:16;;;;;;;9.57;4.07;;;18.30;85.10;;;;;;5063083;28;37861;-54